Sunrise Beach, Washington
Current Conditions -  °F | °C
As of 9:53 AM on Saturday 25 Oct 2014 (Local Time) from KTIW Reporting Station
Broken Clouds Broken Clouds  
Wind Chill: 52°   Ceiling: 8000
Heat Index: 52°   Visibility: 10mi
Dew Point: 48°   Wind: 0mph
Humidity: 86%   Direction: NA
Pressure: 29.5"   Gusts: NA
Location:  47.2986°N, 122.616°W
Report Text: KTIW 251653Z 00000KT 10SM SCT006 BKN080 BKN100 11/09 A2950 RMK AO2 RAB03E23 SLP990 P0001 T01110089
Loading
Personal Weather Stations






























Interactive Weather Map
Tropical Storm Tracking
New forecast layout! Learn more

10-Day Weather Forecast

Advertisements
Track Severe Weather on mobile